createdAt,value
2022-09-04T00:03:32.047Z,1.80
2022-09-04T00:08:48.573Z,1.80
2022-09-04T00:13:58.490Z,2.10
2022-09-04T00:19:06.246Z,1.63
2022-09-04T00:24:15.672Z,1.90
2022-09-04T00:29:30.483Z,1.70
2022-09-04T00:34:54.561Z,1.60
2022-09-04T00:40:04.125Z,1.60
2022-09-04T00:45:23.355Z,1.60
2022-09-04T00:50:41.033Z,1.70
2022-09-04T00:55:56.026Z,1.70
2022-09-04T01:01:01.818Z,1.77
2022-09-04T01:06:19.766Z,1.90
2022-09-04T01:11:35.830Z,1.80
2022-09-04T01:16:47.343Z,2.00
2022-09-04T01:22:05.356Z,1.70
2022-09-04T01:27:20.422Z,1.67
2022-09-04T01:32:34.345Z,1.60
2022-09-04T01:37:49.878Z,2.00
2022-09-04T01:43:01.057Z,1.50
2022-09-04T01:48:10.458Z,1.67
2022-09-04T01:53:19.227Z,1.67
2022-09-04T01:58:35.567Z,1.97
2022-09-04T02:03:48.009Z,1.40
2022-09-04T02:09:03.754Z,1.67
2022-09-04T02:14:27.693Z,1.50
2022-09-04T02:19:42.985Z,1.73
2022-09-04T02:24:54.078Z,1.70
2022-09-04T02:30:04.089Z,2.00
2022-09-04T02:35:16.721Z,1.90
2022-09-04T02:40:27.548Z,1.50
2022-09-04T02:45:38.183Z,1.83
2022-09-04T02:50:57.875Z,2.00
2022-09-04T02:56:13.919Z,1.67
2022-09-04T03:01:27.263Z,1.43
2022-09-04T03:06:49.929Z,1.80
2022-09-04T03:12:00.795Z,1.70
2022-09-04T03:17:14.528Z,1.70
2022-09-04T03:22:22.984Z,2.03
2022-09-04T03:27:28.698Z,1.57
2022-09-04T03:32:43.379Z,1.87
2022-09-04T03:38:15.856Z,1.83
2022-09-04T03:43:40.572Z,2.20
2022-09-04T03:49:04.192Z,2.77
2022-09-04T03:54:18.959Z,1.70
2022-09-04T03:59:41.319Z,1.80
2022-09-04T04:05:06.993Z,1.50
2022-09-04T04:10:23.854Z,1.70
2022-09-04T04:15:39.887Z,1.77
2022-09-04T04:20:50.263Z,1.40
2022-09-04T04:26:06.525Z,1.93
2022-09-04T04:31:21.090Z,2.00
2022-09-04T04:36:34.595Z,2.37
2022-09-04T04:42:07.092Z,2.17
2022-09-04T04:47:21.009Z,1.90
2022-09-04T04:52:45.384Z,2.00
2022-09-04T04:58:19.886Z,2.10
2022-09-04T05:03:32.712Z,2.13
2022-09-04T05:08:43.636Z,1.93
2022-09-04T05:14:07.440Z,2.00
2022-09-04T05:19:19.371Z,1.80
2022-09-04T05:24:33.632Z,1.80
2022-09-04T05:29:51.357Z,1.93
2022-09-04T05:35:05.697Z,1.83
2022-09-04T05:40:23.560Z,1.50
2022-09-04T05:45:40.732Z,2.10
2022-09-04T05:51:00.839Z,1.90
2022-09-04T05:56:33.840Z,2.00
2022-09-04T06:02:06.608Z,2.20
2022-09-04T06:07:17.446Z,2.37
2022-09-04T06:12:37.160Z,2.10
2022-09-04T06:18:04.016Z,2.10
2022-09-04T06:23:28.211Z,2.20
2022-09-04T06:28:47.448Z,2.20
2022-09-04T06:34:00.924Z,2.53
2022-09-04T06:39:19.633Z,2.60
2022-09-04T06:44:41.347Z,2.50
2022-09-04T06:50:00.939Z,2.20
2022-09-04T06:55:15.476Z,2.57
2022-09-04T07:00:20.485Z,2.40
2022-09-04T07:05:32.970Z,3.10
2022-09-04T07:10:41.463Z,2.70
2022-09-04T07:15:59.198Z,2.43
2022-09-04T07:21:11.895Z,3.10
2022-09-04T07:26:28.543Z,2.33
2022-09-04T07:31:40.025Z,2.00
2022-09-04T07:36:54.397Z,1.63
2022-09-04T07:42:06.235Z,1.90
2022-09-04T07:47:18.540Z,2.43
2022-09-04T07:52:41.750Z,1.80
2022-09-04T07:58:07.923Z,1.90
2022-09-04T08:03:28.215Z,1.80
2022-09-04T08:09:10.175Z,1.50
2022-09-04T08:14:24.966Z,1.50
2022-09-04T08:19:41.709Z,1.40
2022-09-04T08:25:17.132Z,1.43
2022-09-04T08:30:22.318Z,1.30
2022-09-04T08:35:30.828Z,1.40
2022-09-04T08:41:07.873Z,1.37
2022-09-04T08:46:33.168Z,1.30
2022-09-04T08:52:27.886Z,1.70
2022-09-04T08:57:57.767Z,1.20
2022-09-04T09:03:36.335Z,1.33
2022-09-04T09:09:16.534Z,1.37
2022-09-04T09:14:49.965Z,1.40
2022-09-04T09:20:01.797Z,1.20
2022-09-04T09:25:28.081Z,1.17
2022-09-04T09:30:47.300Z,1.20
2022-09-04T09:36:30.212Z,0.90
2022-09-04T09:42:08.646Z,0.80
2022-09-04T09:47:51.764Z,1.20
2022-09-04T09:53:30.822Z,1.13
2022-09-04T09:59:08.027Z,1.13
2022-09-04T10:05:02.857Z,1.17
2022-09-04T10:10:40.561Z,1.10
2022-09-04T10:16:09.128Z,1.30
2022-09-04T10:21:52.121Z,1.10
2022-09-04T10:27:32.412Z,1.67
2022-09-04T10:33:11.829Z,1.43
2022-09-04T10:38:29.062Z,1.40
2022-09-04T10:43:55.809Z,1.23
2022-09-04T10:49:30.682Z,1.40
2022-09-04T10:55:04.838Z,1.63
2022-09-04T11:00:14.217Z,1.10
2022-09-04T11:05:37.071Z,1.20
2022-09-04T11:11:00.900Z,1.30
2022-09-04T11:16:32.057Z,1.30
2022-09-04T11:22:15.118Z,1.30
2022-09-04T11:27:58.863Z,1.33
2022-09-04T11:33:38.948Z,1.40
2022-09-04T11:39:21.631Z,1.30
2022-09-04T11:44:46.465Z,1.00
2022-09-04T11:50:11.415Z,1.37
2022-09-04T11:55:48.318Z,1.23
2022-09-04T12:01:05.290Z,1.20
2022-09-04T12:06:38.033Z,1.10
2022-09-04T12:12:23.225Z,1.10
2022-09-04T12:17:55.395Z,1.00
2022-09-04T12:23:32.954Z,1.03
2022-09-04T12:29:12.649Z,0.93
2022-09-04T12:34:35.734Z,1.10
2022-09-04T12:40:24.623Z,1.20
2022-09-04T12:45:40.780Z,1.20
2022-09-04T12:50:52.938Z,1.10
2022-09-04T12:56:05.870Z,1.10
2022-09-04T13:01:17.296Z,1.20
2022-09-04T13:06:30.903Z,0.93
2022-09-04T13:11:56.770Z,0.93
2022-09-04T13:17:19.685Z,1.17
2022-09-04T13:22:31.522Z,1.17
2022-09-04T13:27:51.394Z,1.10
2022-09-04T13:33:22.258Z,1.10
2022-09-04T13:38:51.413Z,1.87
2022-09-04T13:44:19.830Z,1.00
2022-09-04T13:49:29.492Z,1.20
2022-09-04T13:54:38.259Z,0.80
2022-09-04T13:59:44.505Z,1.30
2022-09-04T14:04:54.407Z,1.03
2022-09-04T14:10:02.247Z,1.40
2022-09-04T14:15:46.286Z,1.20
2022-09-04T14:21:00.987Z,1.33
2022-09-04T14:26:13.266Z,1.10
2022-09-04T14:31:24.251Z,1.13
2022-09-04T14:36:41.007Z,1.30
2022-09-04T14:42:00.564Z,1.20
2022-09-04T14:47:17.234Z,1.20
2022-09-04T14:52:28.306Z,1.10
2022-09-04T14:57:38.747Z,1.50
2022-09-04T15:02:47.543Z,1.17
2022-09-04T15:08:01.715Z,1.10
2022-09-04T15:13:32.741Z,1.27
2022-09-04T15:18:55.510Z,1.37
2022-09-04T15:24:13.902Z,1.10
2022-09-04T15:29:26.186Z,1.30
2022-09-04T15:34:32.705Z,1.30
2022-09-04T15:39:45.752Z,1.27
2022-09-04T15:44:50.062Z,2.13
2022-09-04T15:49:58.102Z,1.90
2022-09-04T15:55:10.896Z,1.60
2022-09-04T16:00:22.376Z,1.50
2022-09-04T16:05:41.689Z,1.80
2022-09-04T16:10:54.449Z,2.10
2022-09-04T16:16:04.534Z,1.90
2022-09-04T16:21:21.657Z,1.73
2022-09-04T16:26:30.907Z,2.03
2022-09-04T16:31:36.913Z,1.67
2022-09-04T16:36:45.899Z,2.10
2022-09-04T16:41:56.576Z,1.80
2022-09-04T16:47:10.882Z,1.83
2022-09-04T16:52:45.162Z,1.93
2022-09-04T16:58:02.368Z,1.87
2022-09-04T17:03:18.657Z,2.10
2022-09-04T17:08:34.165Z,1.67
2022-09-04T17:13:48.547Z,2.10
2022-09-04T17:18:57.204Z,2.70
2022-09-04T17:29:03.083Z,1.67
2022-09-04T17:29:46.316Z,2.00
2022-09-04T17:40:32.780Z,2.23
2022-09-04T17:41:31.410Z,1.90
2022-09-04T17:46:16.087Z,1.80
2022-09-04T17:51:26.061Z,2.13
2022-09-04T17:56:37.833Z,2.00
2022-09-04T18:01:46.924Z,2.27
2022-09-04T18:07:00.436Z,1.70
2022-09-04T18:12:31.494Z,2.40
2022-09-04T18:17:48.359Z,2.17
2022-09-04T18:23:48.230Z,2.30
2022-09-04T18:29:30.445Z,2.70
2022-09-04T18:37:25.324Z,2.17
2022-09-04T18:40:08.692Z,1.80
2022-09-04T18:50:41.121Z,2.30
2022-09-04T18:51:18.343Z,2.43
2022-09-04T18:56:26.646Z,2.60
2022-09-04T19:01:42.836Z,2.07
2022-09-04T19:07:07.234Z,2.80
2022-09-04T19:12:19.262Z,2.63
2022-09-04T19:17:34.491Z,3.40
2022-09-04T19:22:48.628Z,2.70
2022-09-04T19:27:59.401Z,2.50
2022-09-04T19:33:10.298Z,2.63
2022-09-04T19:44:55.090Z,2.70
2022-09-04T19:46:19.664Z,2.53
2022-09-04T19:50:53.959Z,2.50
2022-09-04T19:54:59.927Z,2.70
2022-09-04T20:00:31.201Z,2.30
2022-09-04T20:05:57.808Z,2.67
2022-09-04T20:11:10.249Z,2.40
2022-09-04T20:16:39.347Z,3.43
2022-09-04T20:21:57.815Z,2.60
2022-09-04T20:27:16.001Z,2.80
2022-09-04T20:32:28.595Z,2.87
2022-09-04T20:37:43.666Z,2.90
2022-09-04T20:42:57.060Z,2.80
2022-09-04T20:52:54.579Z,2.43
2022-09-04T20:53:50.213Z,3.10
2022-09-04T21:03:13.348Z,2.60
2022-09-04T21:04:43.524Z,2.40
2022-09-04T21:09:56.263Z,2.47
2022-09-04T21:15:10.156Z,2.47
2022-09-04T21:21:00.641Z,2.40
2022-09-04T21:26:15.233Z,2.10
2022-09-04T21:31:44.214Z,2.20
2022-09-04T21:36:56.308Z,2.73
2022-09-04T21:42:24.361Z,2.47
2022-09-04T21:47:53.050Z,2.37
2022-09-04T21:53:32.891Z,2.33
2022-09-04T22:02:43.459Z,2.50
2022-09-04T22:04:38.841Z,2.27
2022-09-04T22:13:28.959Z,2.37
2022-09-04T22:16:00.786Z,2.23
2022-09-04T22:21:25.968Z,2.07
2022-09-04T22:26:50.554Z,3.20
2022-09-04T22:32:38.918Z,2.40
2022-09-04T22:38:15.426Z,2.50
2022-09-04T22:43:23.377Z,2.40
2022-09-04T22:48:47.344Z,2.00
2022-09-04T22:54:25.328Z,2.40
2022-09-04T23:00:10.071Z,2.23
2022-09-04T23:05:54.142Z,2.20
2022-09-04T23:14:02.935Z,2.20
2022-09-04T23:17:30.025Z,2.30
2022-09-04T23:26:46.444Z,2.50
2022-09-04T23:28:36.687Z,2.17
2022-09-04T23:33:58.551Z,2.40
2022-09-04T23:39:29.969Z,3.10
2022-09-04T23:45:14.946Z,2.53
2022-09-04T23:50:28.545Z,2.17
2022-09-04T23:55:48.851Z,2.53
